createdAt,value
2019-05-19T00:01:21.344Z,75.02
2019-05-19T00:03:49.503Z,75.09
2019-05-19T00:06:17.689Z,75.17
2019-05-19T00:08:45.878Z,75.16
2019-05-19T00:11:14.003Z,75.22
2019-05-19T00:13:42.174Z,75.21
2019-05-19T00:16:10.322Z,75.30
2019-05-19T00:18:38.437Z,75.45
2019-05-19T00:21:06.552Z,75.60
2019-05-19T00:23:34.693Z,75.72
2019-05-19T00:26:02.915Z,75.78
2019-05-19T00:28:31.050Z,75.89
2019-05-19T00:30:59.183Z,76.05
2019-05-19T00:33:27.343Z,76.14
2019-05-19T00:35:55.653Z,76.14
2019-05-19T00:38:23.871Z,76.30
2019-05-19T00:40:52.049Z,76.48
2019-05-19T00:43:20.188Z,76.55
2019-05-19T00:45:48.302Z,76.58
2019-05-19T00:48:16.420Z,76.71
2019-05-19T00:50:44.573Z,76.71
2019-05-19T00:53:12.699Z,76.80
2019-05-19T00:55:41.045Z,76.87
2019-05-19T00:58:09.967Z,77.04
2019-05-19T01:00:38.149Z,77.04
2019-05-19T01:03:06.307Z,77.13
2019-05-19T01:05:34.425Z,77.11
2019-05-19T01:08:03.769Z,77.25
2019-05-19T01:10:31.899Z,77.22
2019-05-19T01:13:00.008Z,77.21
2019-05-19T01:15:28.125Z,77.33
2019-05-19T01:17:56.265Z,77.35
2019-05-19T01:20:24.353Z,77.43
2019-05-19T01:22:52.475Z,77.67
2019-05-19T01:25:20.633Z,77.75
2019-05-19T01:27:48.758Z,77.87
2019-05-19T01:30:17.702Z,77.81
2019-05-19T01:32:45.829Z,77.74
2019-05-19T01:35:13.994Z,77.88
2019-05-19T01:37:42.098Z,77.87
2019-05-19T01:40:10.520Z,77.84
2019-05-19T01:42:38.695Z,77.87
2019-05-19T01:45:07.465Z,77.93
2019-05-19T01:47:35.574Z,78.10
2019-05-19T01:50:17.098Z,78.16
2019-05-19T01:52:33.844Z,78.21
2019-05-19T01:55:01.943Z,78.32
2019-05-19T01:57:30.163Z,78.49
2019-05-19T01:59:58.421Z,78.63
2019-05-19T02:02:26.545Z,78.73
2019-05-19T02:04:54.831Z,78.86
2019-05-19T02:07:22.966Z,79.00
2019-05-19T02:09:51.111Z,79.06
2019-05-19T02:12:19.274Z,79.26
2019-05-19T02:14:47.492Z,79.32
2019-05-19T02:17:15.743Z,79.39
2019-05-19T02:19:43.963Z,79.44
2019-05-19T02:22:12.042Z,79.55
2019-05-19T02:24:40.187Z,79.50
2019-05-19T02:27:08.342Z,79.53
2019-05-19T02:29:36.447Z,79.60
2019-05-19T02:32:04.608Z,79.66
2019-05-19T02:34:32.733Z,79.62
2019-05-19T02:37:00.922Z,79.70
2019-05-19T02:39:29.054Z,79.82
2019-05-19T02:41:59.559Z,79.83
2019-05-19T02:44:28.517Z,79.71
2019-05-19T02:46:58.073Z,79.81
2019-05-19T02:49:29.352Z,79.91
2019-05-19T02:51:58.213Z,80.09
2019-05-19T02:54:27.274Z,80.01
2019-05-19T02:56:56.416Z,80.12
2019-05-19T02:59:25.530Z,80.15
2019-05-19T03:01:53.652Z,80.24
2019-05-19T03:04:21.829Z,80.26
2019-05-19T03:06:49.971Z,80.27
2019-05-19T03:09:18.176Z,80.31
2019-05-19T03:11:46.310Z,80.33
2019-05-19T03:14:14.503Z,80.61
2019-05-19T03:16:42.641Z,80.61
2019-05-19T03:19:10.845Z,80.55
2019-05-19T03:21:38.979Z,80.63
2019-05-19T03:24:07.403Z,80.63
2019-05-19T03:26:35.519Z,80.63
2019-05-19T03:29:03.737Z,80.65
2019-05-19T03:31:31.910Z,80.63
2019-05-19T03:34:00.016Z,80.66
2019-05-19T03:36:28.154Z,80.61
2019-05-19T03:38:56.285Z,80.59
2019-05-19T03:41:24.460Z,80.59
2019-05-19T03:43:52.592Z,80.65
2019-05-19T03:46:20.711Z,80.85
2019-05-19T03:48:48.840Z,80.86
2019-05-19T03:51:30.031Z,80.87
2019-05-19T03:53:46.849Z,80.92
2019-05-19T03:56:14.975Z,80.97
2019-05-19T03:58:43.125Z,80.95
2019-05-19T04:01:11.235Z,81.01
2019-05-19T04:03:39.357Z,80.99
2019-05-19T04:06:07.807Z,81.05
2019-05-19T04:08:35.985Z,81.19
2019-05-19T04:11:04.100Z,81.18
2019-05-19T04:13:32.256Z,81.24
2019-05-19T04:16:00.391Z,81.25
2019-05-19T04:18:28.580Z,81.26
2019-05-19T04:20:56.981Z,81.36
2019-05-19T04:23:25.116Z,81.28
2019-05-19T04:25:53.415Z,81.34
2019-05-19T04:28:21.563Z,81.37
2019-05-19T04:30:49.702Z,81.35
2019-05-19T04:33:17.843Z,81.24
2019-05-19T04:35:46.021Z,81.24
2019-05-19T04:38:14.123Z,81.17
2019-05-19T04:40:42.567Z,81.16
2019-05-19T04:43:10.707Z,81.17
2019-05-19T04:45:38.840Z,81.18
2019-05-19T04:48:09.677Z,81.13
2019-05-19T04:50:36.869Z,81.14
2019-05-19T04:53:05.007Z,81.16
2019-05-19T04:55:33.138Z,81.17
2019-05-19T04:58:03.407Z,81.08
2019-05-19T05:00:31.506Z,81.10
2019-05-19T05:02:59.632Z,81.07
2019-05-19T05:05:27.808Z,81.04
2019-05-19T05:07:55.994Z,81.03
2019-05-19T05:10:24.109Z,81.02
2019-05-19T05:12:52.234Z,81.01
2019-05-19T05:15:20.373Z,81.07
2019-05-19T05:17:48.508Z,81.05
2019-05-19T05:20:16.654Z,81.08
2019-05-19T05:22:44.836Z,81.09
2019-05-19T05:25:13.553Z,81.04
2019-05-19T05:27:41.650Z,81.04
2019-05-19T05:30:10.374Z,81.06
2019-05-19T05:32:38.619Z,80.98
2019-05-19T05:35:07.169Z,80.93
2019-05-19T05:37:35.300Z,80.88
2019-05-19T05:40:04.054Z,80.75
2019-05-19T05:42:32.240Z,80.67
2019-05-19T05:45:00.400Z,80.60
2019-05-19T05:47:28.546Z,80.52
2019-05-19T05:49:56.716Z,80.37
2019-05-19T05:52:37.450Z,80.29
2019-05-19T05:54:54.704Z,80.23
2019-05-19T05:57:22.817Z,80.13
2019-05-19T05:59:50.961Z,80.05
2019-05-19T06:02:19.166Z,79.96
2019-05-19T06:04:47.303Z,79.76
2019-05-19T06:07:15.459Z,79.64
2019-05-19T06:09:43.595Z,79.62
2019-05-19T06:12:11.680Z,79.58
2019-05-19T06:14:39.823Z,79.48
2019-05-19T06:17:07.923Z,79.37
2019-05-19T06:19:36.044Z,79.34
2019-05-19T06:22:04.276Z,79.30
2019-05-19T06:24:32.417Z,79.23
2019-05-19T06:27:00.571Z,79.23
2019-05-19T06:29:28.705Z,79.11
2019-05-19T06:31:56.937Z,79.00
2019-05-19T06:34:25.184Z,79.00
2019-05-19T06:36:55.172Z,78.96
2019-05-19T06:39:23.215Z,78.90
2019-05-19T06:41:51.341Z,78.86
2019-05-19T06:44:19.456Z,78.75
2019-05-19T06:46:47.604Z,78.62
2019-05-19T06:49:15.745Z,78.53
2019-05-19T06:51:43.882Z,78.54
2019-05-19T06:54:12.038Z,78.25
2019-05-19T06:56:40.283Z,78.18
2019-05-19T06:59:08.444Z,78.01
2019-05-19T07:01:36.559Z,77.72
2019-05-19T07:04:04.732Z,77.46
2019-05-19T07:06:34.313Z,77.36
2019-05-19T07:09:02.865Z,77.12
2019-05-19T07:11:31.018Z,76.84
2019-05-19T07:14:02.756Z,76.36
2019-05-19T07:16:28.982Z,76.06
2019-05-19T07:18:57.157Z,75.74
2019-05-19T07:21:25.293Z,74.97
2019-05-19T07:23:53.411Z,74.49
2019-05-19T07:26:21.591Z,73.96
2019-05-19T07:28:49.704Z,73.35
2019-05-19T07:31:17.860Z,72.88
2019-05-19T07:33:46.315Z,72.63
2019-05-19T07:36:14.440Z,72.26
2019-05-19T07:38:42.570Z,72.16
2019-05-19T07:41:10.730Z,72.07
2019-05-19T07:43:38.937Z,71.91
2019-05-19T07:46:07.571Z,71.58
2019-05-19T07:48:35.667Z,70.95
2019-05-19T07:51:03.842Z,70.67
2019-05-19T07:53:42.545Z,70.48
2019-05-19T07:56:01.874Z,70.32
2019-05-19T07:58:30.023Z,70.17
2019-05-19T08:00:58.159Z,69.77
2019-05-19T08:03:26.266Z,69.59
2019-05-19T08:05:56.987Z,69.32
2019-05-19T08:08:24.329Z,68.93
2019-05-19T08:10:52.769Z,68.32
2019-05-19T08:13:20.922Z,67.43
2019-05-19T08:15:49.159Z,66.78
2019-05-19T08:18:17.306Z,66.30
2019-05-19T08:20:45.471Z,66.28
2019-05-19T08:23:13.611Z,66.08
2019-05-19T08:25:41.805Z,65.70
2019-05-19T08:28:10.018Z,65.07
2019-05-19T08:30:40.368Z,64.05
2019-05-19T08:33:07.761Z,63.02
2019-05-19T08:35:35.917Z,59.82
2019-05-19T08:38:04.059Z,61.19
2019-05-19T08:40:32.267Z,59.71
2019-05-19T08:43:00.442Z,58.34
2019-05-19T08:45:28.612Z,57.81
2019-05-19T08:47:56.708Z,57.30
2019-05-19T08:50:24.813Z,56.96
2019-05-19T08:52:52.937Z,56.45
2019-05-19T08:55:21.174Z,55.68
2019-05-19T08:57:49.364Z,55.07
2019-05-19T09:00:17.503Z,54.47
2019-05-19T09:02:45.607Z,54.18
2019-05-19T09:05:13.747Z,53.48
2019-05-19T09:07:41.901Z,52.96
2019-05-19T09:10:10.031Z,52.60
2019-05-19T09:12:38.221Z,52.31
2019-05-19T09:15:06.732Z,52.23
2019-05-19T09:17:34.952Z,51.69
2019-05-19T09:20:03.618Z,51.24
2019-05-19T09:22:31.762Z,50.97
2019-05-19T09:24:59.900Z,50.91
2019-05-19T09:27:28.065Z,50.89
2019-05-19T09:29:56.232Z,49.60
2019-05-19T09:32:24.419Z,50.02
2019-05-19T09:34:52.544Z,49.79
2019-05-19T09:37:20.706Z,49.69
2019-05-19T09:39:48.890Z,49.57
2019-05-19T09:42:17.737Z,49.32
2019-05-19T09:44:45.842Z,49.12
2019-05-19T09:47:13.999Z,48.97
2019-05-19T09:49:42.087Z,48.55
2019-05-19T09:52:10.197Z,48.17
2019-05-19T09:54:45.124Z,48.02
2019-05-19T09:57:08.235Z,48.02
2019-05-19T09:59:36.371Z,48.07
2019-05-19T10:02:04.570Z,48.18
2019-05-19T10:04:32.680Z,48.18
2019-05-19T10:07:00.924Z,48.10
2019-05-19T10:09:58.041Z,48.22
2019-05-19T10:12:26.316Z,48.39
2019-05-19T10:14:54.561Z,48.56
2019-05-19T10:17:22.694Z,48.59
2019-05-19T10:19:50.934Z,48.82
2019-05-19T10:22:19.076Z,48.81
2019-05-19T10:25:03.680Z,48.64
2019-05-19T10:27:17.052Z,48.64
2019-05-19T10:29:45.190Z,48.51
2019-05-19T10:32:13.368Z,48.83
2019-05-19T10:34:41.507Z,49.38
2019-05-19T10:37:09.642Z,49.79
2019-05-19T10:39:37.769Z,50.11
2019-05-19T10:42:05.970Z,50.45
2019-05-19T10:44:34.209Z,50.86
2019-05-19T10:47:02.403Z,51.27
2019-05-19T10:49:30.549Z,51.60
2019-05-19T10:51:58.653Z,52.06
2019-05-19T10:54:26.775Z,52.06
2019-05-19T10:56:54.923Z,51.75
2019-05-19T10:59:23.062Z,51.29
2019-05-19T11:01:51.226Z,49.99
2019-05-19T11:04:19.327Z,48.46
2019-05-19T11:06:47.490Z,47.52
2019-05-19T11:09:15.699Z,47.19
2019-05-19T11:11:43.878Z,47.08
2019-05-19T11:14:12.145Z,46.66
2019-05-19T11:16:40.290Z,46.04
2019-05-19T11:19:08.474Z,45.55
2019-05-19T11:21:36.605Z,44.94
2019-05-19T11:24:04.832Z,44.74
2019-05-19T11:26:32.964Z,44.78
2019-05-19T11:29:01.135Z,45.11
2019-05-19T11:31:29.261Z,45.30
2019-05-19T11:33:57.595Z,45.40
2019-05-19T11:36:25.834Z,45.28
2019-05-19T11:38:54.015Z,45.39
2019-05-19T11:41:22.199Z,44.82
2019-05-19T11:43:50.345Z,44.15
2019-05-19T11:46:18.471Z,42.82
2019-05-19T11:48:46.727Z,43.29
2019-05-19T11:51:14.913Z,43.36
2019-05-19T11:53:43.079Z,43.69
2019-05-19T11:56:11.810Z,44.05
2019-05-19T11:58:39.996Z,44.37
2019-05-19T12:01:08.153Z,44.38
2019-05-19T12:03:36.320Z,44.08
2019-05-19T12:06:04.515Z,44.08
2019-05-19T12:08:32.650Z,43.92
2019-05-19T12:11:06.061Z,43.07
2019-05-19T12:13:35.040Z,42.19
2019-05-19T12:16:03.615Z,41.11
2019-05-19T12:18:32.152Z,40.93
2019-05-19T12:21:00.313Z,40.35
2019-05-19T12:23:28.441Z,40.19
2019-05-19T12:25:56.551Z,40.17
2019-05-19T12:28:24.639Z,39.81
2019-05-19T12:30:52.823Z,39.64
2019-05-19T12:33:20.976Z,39.28
2019-05-19T12:35:49.155Z,39.22
2019-05-19T12:38:17.325Z,39.27
2019-05-19T12:40:45.459Z,39.61
2019-05-19T12:43:13.585Z,40.29
2019-05-19T12:45:41.788Z,40.47
2019-05-19T12:48:09.868Z,41.09
2019-05-19T12:50:38.137Z,41.82
2019-05-19T12:53:06.209Z,42.15
2019-05-19T12:55:34.378Z,42.42
2019-05-19T12:58:02.546Z,42.89
2019-05-19T13:00:30.773Z,43.48
2019-05-19T13:02:58.916Z,44.12
2019-05-19T13:05:27.083Z,44.51
2019-05-19T13:07:55.207Z,45.17
2019-05-19T13:10:23.333Z,45.92
2019-05-19T13:12:51.597Z,46.39
2019-05-19T13:15:21.259Z,47.68
2019-05-19T13:17:49.704Z,47.68
2019-05-19T13:20:17.905Z,47.92
2019-05-19T13:22:46.042Z,48.49
2019-05-19T13:25:14.269Z,48.84
2019-05-19T13:27:42.409Z,49.25
2019-05-19T13:30:10.677Z,49.51
2019-05-19T13:32:38.873Z,49.59
2019-05-19T13:35:07.160Z,49.64
2019-05-19T13:37:35.335Z,49.63
2019-05-19T13:40:04.150Z,50.00
2019-05-19T13:42:32.361Z,50.00
2019-05-19T13:45:00.502Z,50.18
2019-05-19T13:47:28.617Z,50.15
2019-05-19T13:49:56.770Z,50.15
2019-05-19T13:52:24.915Z,50.16
2019-05-19T13:54:53.196Z,50.27
2019-05-19T13:57:21.377Z,50.43
2019-05-19T13:59:49.529Z,50.80
2019-05-19T14:02:17.669Z,50.70
2019-05-19T14:04:45.837Z,50.42
2019-05-19T14:07:13.984Z,50.69
2019-05-19T14:09:42.119Z,50.76
2019-05-19T14:12:10.303Z,51.04
2019-05-19T14:14:38.526Z,51.01
2019-05-19T14:17:06.667Z,50.91
2019-05-19T14:19:36.156Z,50.94
2019-05-19T14:22:04.310Z,50.92
2019-05-19T14:24:32.546Z,50.58
2019-05-19T14:27:02.078Z,50.46
2019-05-19T14:29:31.464Z,50.70
2019-05-19T14:31:59.623Z,50.94
2019-05-19T14:34:27.773Z,51.13
2019-05-19T14:36:55.876Z,51.21
2019-05-19T14:39:24.059Z,51.45
2019-05-19T14:41:52.272Z,51.65
2019-05-19T14:44:20.356Z,51.85
2019-05-19T14:46:48.496Z,52.06
2019-05-19T14:49:16.693Z,52.05
2019-05-19T14:51:44.860Z,52.08
2019-05-19T14:54:13.039Z,52.35
2019-05-19T14:56:41.244Z,52.64
2019-05-19T14:59:09.528Z,52.65
2019-05-19T15:01:37.704Z,52.78
2019-05-19T15:04:05.974Z,52.87
2019-05-19T15:06:34.154Z,52.93
2019-05-19T15:09:02.281Z,52.84
2019-05-19T15:11:30.498Z,52.65
2019-05-19T15:13:58.612Z,52.44
2019-05-19T15:16:26.777Z,52.30
2019-05-19T15:18:54.922Z,52.53
2019-05-19T15:21:23.040Z,52.83
2019-05-19T15:23:51.581Z,53.16
2019-05-19T15:26:19.734Z,53.33
2019-05-19T15:28:47.872Z,52.62
2019-05-19T15:31:16.016Z,52.54
2019-05-19T15:33:45.260Z,52.41
2019-05-19T15:36:13.365Z,51.99
2019-05-19T15:38:41.504Z,51.20
2019-05-19T15:41:09.631Z,50.52
2019-05-19T15:43:37.828Z,50.26
2019-05-19T15:46:05.992Z,50.06
2019-05-19T15:48:34.109Z,49.47
2019-05-19T15:51:02.329Z,49.47
2019-05-19T15:53:30.514Z,49.01
2019-05-19T15:55:58.681Z,48.87
2019-05-19T15:58:26.800Z,48.96
2019-05-19T16:00:55.022Z,48.84
2019-05-19T16:03:23.146Z,48.55
2019-05-19T16:05:51.257Z,48.36
2019-05-19T16:08:19.475Z,48.21
2019-05-19T16:10:47.676Z,47.96
2019-05-19T16:13:16.614Z,47.90
2019-05-19T16:15:44.769Z,47.95
2019-05-19T16:18:12.919Z,48.03
2019-05-19T16:20:41.026Z,48.45
2019-05-19T16:23:09.177Z,48.90
2019-05-19T16:25:37.306Z,49.41
2019-05-19T16:28:05.532Z,50.08
2019-05-19T16:30:33.699Z,50.78
2019-05-19T16:33:04.191Z,51.66
2019-05-19T16:35:31.394Z,52.07
2019-05-19T16:37:59.672Z,52.81
2019-05-19T16:40:27.784Z,52.81
2019-05-19T16:42:55.945Z,53.54
2019-05-19T16:45:24.192Z,53.81
2019-05-19T16:47:52.359Z,53.81
2019-05-19T16:50:20.631Z,53.90
2019-05-19T16:52:48.899Z,54.08
2019-05-19T16:55:17.126Z,54.34
2019-05-19T16:57:45.280Z,54.40
2019-05-19T17:00:13.615Z,54.66
2019-05-19T17:02:41.808Z,55.09
2019-05-19T17:05:10.150Z,55.27
2019-05-19T17:07:38.348Z,55.45
2019-05-19T17:10:06.696Z,55.75
2019-05-19T17:12:34.884Z,56.17
2019-05-19T17:15:03.190Z,56.41
2019-05-19T17:17:34.346Z,56.54
2019-05-19T17:20:03.365Z,56.51
2019-05-19T17:22:31.890Z,56.62
2019-05-19T17:25:00.480Z,56.81
2019-05-19T17:27:28.759Z,57.12
2019-05-19T17:29:56.866Z,57.27
2019-05-19T17:32:24.986Z,57.36
2019-05-19T17:34:53.135Z,57.45
2019-05-19T17:37:21.288Z,57.64
2019-05-19T17:39:49.411Z,57.85
2019-05-19T17:42:17.559Z,58.04
2019-05-19T17:44:45.663Z,58.27
2019-05-19T17:47:13.792Z,58.57
2019-05-19T17:49:41.907Z,58.92
2019-05-19T17:52:10.025Z,59.22
2019-05-19T17:54:38.140Z,59.30
2019-05-19T17:57:06.288Z,59.69
2019-05-19T17:59:35.127Z,60.08
2019-05-19T18:02:03.274Z,60.30
2019-05-19T18:04:31.484Z,60.46
2019-05-19T18:06:59.640Z,60.69
2019-05-19T18:09:27.797Z,61.05
2019-05-19T18:11:55.909Z,61.26
2019-05-19T18:14:24.038Z,61.48
2019-05-19T18:16:52.287Z,61.87
2019-05-19T18:19:20.521Z,62.11
2019-05-19T18:21:48.829Z,62.65
2019-05-19T18:24:16.946Z,63.10
2019-05-19T18:26:45.099Z,63.10
2019-05-19T18:29:13.249Z,63.56
2019-05-19T18:31:41.403Z,63.81
2019-05-19T18:34:09.569Z,64.04
2019-05-19T18:36:37.746Z,64.67
2019-05-19T18:39:05.923Z,64.73
2019-05-19T18:41:34.045Z,64.96
2019-05-19T18:44:02.161Z,65.37
2019-05-19T18:46:30.322Z,65.45
2019-05-19T18:48:58.450Z,65.61
2019-05-19T18:51:26.979Z,65.81
2019-05-19T18:53:55.145Z,66.14
2019-05-19T18:56:23.299Z,66.06
2019-05-19T18:58:51.461Z,66.56
2019-05-19T19:01:19.630Z,66.53
2019-05-19T19:03:47.757Z,66.65
2019-05-19T19:06:15.881Z,66.77
2019-05-19T19:08:44.048Z,67.07
2019-05-19T19:11:12.163Z,67.12
2019-05-19T19:13:40.395Z,67.09
2019-05-19T19:16:08.500Z,67.07
2019-05-19T19:18:36.656Z,67.17
2019-05-19T19:21:04.861Z,67.31
2019-05-19T19:23:32.963Z,67.29
2019-05-19T19:26:01.208Z,67.92
2019-05-19T19:28:29.463Z,67.72
2019-05-19T19:30:57.726Z,67.93
2019-05-19T19:33:25.883Z,68.05
2019-05-19T19:35:54.043Z,68.22
2019-05-19T19:38:22.218Z,68.31
2019-05-19T19:40:50.364Z,68.72
2019-05-19T19:43:18.529Z,69.02
2019-05-19T19:45:46.631Z,69.04
2019-05-19T19:48:14.843Z,69.33
2019-05-19T19:50:43.012Z,69.49
2019-05-19T19:53:11.917Z,69.90
2019-05-19T19:55:40.030Z,69.98
2019-05-19T19:58:08.196Z,70.28
2019-05-19T20:00:43.772Z,70.44
2019-05-19T20:03:12.545Z,70.77
2019-05-19T20:05:40.891Z,70.86
2019-05-19T20:08:09.423Z,71.23
2019-05-19T20:10:38.188Z,71.37
2019-05-19T20:13:06.370Z,71.85
2019-05-19T20:15:35.222Z,72.18
2019-05-19T20:18:03.361Z,72.38
2019-05-19T20:20:31.504Z,72.61
2019-05-19T20:22:59.626Z,73.22
2019-05-19T20:25:27.733Z,73.06
2019-05-19T20:27:55.915Z,73.19
2019-05-19T20:30:35.134Z,73.46
2019-05-19T20:32:53.888Z,74.30
2019-05-19T20:35:25.029Z,73.79
2019-05-19T20:37:54.893Z,73.56
2019-05-19T20:40:23.068Z,73.58
2019-05-19T20:42:51.327Z,73.96
2019-05-19T20:45:19.489Z,73.91
2019-05-19T20:47:50.606Z,73.81
2019-05-19T20:50:21.102Z,74.00
2019-05-19T20:52:50.166Z,74.60
2019-05-19T20:55:21.053Z,74.76
2019-05-19T20:57:51.809Z,74.27
2019-05-19T21:00:20.938Z,74.19
2019-05-19T21:02:52.828Z,74.68
2019-05-19T21:05:22.159Z,74.40
2019-05-19T21:07:50.308Z,74.54
2019-05-19T21:10:18.447Z,74.53
2019-05-19T21:12:49.287Z,74.61
2019-05-19T21:15:17.415Z,74.62
2019-05-19T21:17:45.553Z,74.72
2019-05-19T21:20:13.842Z,74.83
2019-05-19T21:22:41.973Z,74.92
2019-05-19T21:25:10.312Z,74.80
2019-05-19T21:27:38.471Z,74.75
2019-05-19T21:30:08.250Z,74.68
2019-05-19T21:32:36.408Z,74.60
2019-05-19T21:35:04.939Z,74.68
2019-05-19T21:37:33.050Z,74.99
2019-05-19T21:40:01.188Z,75.09
2019-05-19T21:42:29.322Z,75.22
2019-05-19T21:44:57.430Z,75.49
2019-05-19T21:47:25.550Z,75.76
2019-05-19T21:49:53.715Z,75.91
2019-05-19T21:52:21.882Z,75.93
2019-05-19T21:54:50.043Z,76.21
2019-05-19T21:57:18.168Z,76.42
2019-05-19T21:59:46.331Z,76.65
2019-05-19T22:02:14.492Z,76.95
2019-05-19T22:04:42.598Z,77.00
2019-05-19T22:07:10.783Z,77.22
2019-05-19T22:09:38.882Z,77.17
2019-05-19T22:12:06.992Z,77.48
2019-05-19T22:14:35.227Z,78.12
2019-05-19T22:17:03.397Z,77.89
2019-05-19T22:19:31.550Z,78.33
2019-05-19T22:21:59.699Z,78.53
2019-05-19T22:24:27.844Z,78.96
2019-05-19T22:26:56.012Z,78.75
2019-05-19T22:29:24.250Z,78.93
2019-05-19T22:31:52.376Z,78.78
2019-05-19T22:34:20.620Z,78.81
2019-05-19T22:36:48.699Z,79.05
2019-05-19T22:39:16.807Z,79.17
2019-05-19T22:41:44.997Z,79.03
2019-05-19T22:44:13.184Z,79.08
2019-05-19T22:46:41.412Z,79.00
2019-05-19T22:49:09.613Z,78.97
2019-05-19T22:51:37.799Z,79.13
2019-05-19T22:54:05.934Z,79.21
2019-05-19T22:56:34.060Z,79.08
2019-05-19T22:59:18.619Z,79.14
2019-05-19T23:01:34.399Z,79.20
2019-05-19T23:04:02.535Z,79.13
2019-05-19T23:06:30.678Z,79.07
2019-05-19T23:08:58.826Z,79.07
2019-05-19T23:11:27.000Z,79.07
2019-05-19T23:13:55.127Z,79.03
2019-05-19T23:16:23.256Z,79.03
2019-05-19T23:18:51.794Z,78.96
2019-05-19T23:21:19.926Z,79.05
2019-05-19T23:23:48.038Z,79.03
2019-05-19T23:26:16.267Z,78.95
2019-05-19T23:28:44.443Z,78.85
2019-05-19T23:31:12.563Z,78.81
2019-05-19T23:33:40.735Z,78.78
2019-05-19T23:36:08.847Z,78.80
2019-05-19T23:38:36.955Z,78.75
2019-05-19T23:41:05.104Z,78.87
2019-05-19T23:43:33.229Z,78.90
2019-05-19T23:46:01.346Z,78.92
2019-05-19T23:48:29.628Z,78.80
2019-05-19T23:50:57.787Z,78.78
2019-05-19T23:53:26.052Z,78.70
2019-05-19T23:55:54.201Z,78.69
2019-05-19T23:58:22.305Z,78.65
